Time;durP1;ratioP1;P1;durP2;ratioP2;P2;SDS_P1;SDS_P2;PMS_P1;PMS_P2;Temp;Humidity;BMP_temperature;BMP_pressure;BME280_temperature;BME280_humidity;BME280_pressure;Samples;Min_cycle;Max_cycle;Signal;HPM_P1;HPM_P2
2022/12/03 00:02:13;;;;;;;15;9.6;;;;;;;;;;;;;
2022/12/03 00:04:47;;;;;;;40.5;25.6;;;;;;;;;;;;;
2022/12/03 00:07:12;;;;;;;18.2;10.9;;;;;;;;;;;;;
2022/12/03 00:09:41;;;;;;;17.2;10.2;;;;;;;;;;;;;
2022/12/03 00:12:06;;;;;;;17.4;10.2;;;;;;;;;;;;;
2022/12/03 00:14:35;;;;;;;17.4;11.1;;;;;;;;;;;;;
2022/12/03 00:17:04;;;;;;;18.4;10.7;;;;;;;;;;;;;
2022/12/03 00:19:29;;;;;;;18.7;10.6;;;;;;;;;;;;;
2022/12/03 00:21:56;;;;;;;16.9;9.3;;;;;;;;;;;;;
2022/12/03 00:24:25;;;;;;;15.3;9.9;;;;;;;;;;;;;
2022/12/03 00:26:53;;;;;;;15.5;9.6;;;;;;;;;;;;;
2022/12/03 00:29:18;;;;;;;16.9;9.3;;;;;;;;;;;;;
2022/12/03 00:31:46;;;;;;;17.4;9.3;;;;;;;;;;;;;
2022/12/03 00:34:47;;;;;;;15.4;8.8;;;;;;;;;;;;;
2022/12/03 00:37:09;;;;;;;14.2;8.2;;;;;;;;;;;;;
2022/12/03 00:39:34;;;;;;;12.1;7.6;;;;;;;;;;;;;
2022/12/03 00:41:59;;;;;;;11.8;8.2;;;;;;;;;;;;;
2022/12/03 00:44:24;;;;;;;12.4;8.1;;;;;;;;;;;;;
2022/12/03 00:46:49;;;;;;;13.2;8.6;;;;;;;;;;;;;
2022/12/03 00:49:17;;;;;;;13.4;8.2;;;;;;;;;;;;;
2022/12/03 00:51:42;;;;;;;13.3;8.1;;;;;;;;;;;;;
2022/12/03 00:54:07;;;;;;;14.5;8.5;;;;;;;;;;;;;
2022/12/03 00:56:32;;;;;;;13.7;8.1;;;;;;;;;;;;;
2022/12/03 00:58:59;;;;;;;13.6;9.3;;;;;;;;;;;;;
2022/12/03 01:01:24;;;;;;;15;8.5;;;;;;;;;;;;;
2022/12/03 01:03:49;;;;;;;13.7;8.3;;;;;;;;;;;;;
2022/12/03 01:06:14;;;;;;;13.7;8.3;;;;;;;;;;;;;
2022/12/03 01:08:41;;;;;;;13.8;8.3;;;;;;;;;;;;;
2022/12/03 01:11:36;;;;;;;13.1;8;;;;;;;;;;;;;
2022/12/03 01:13:31;;;;;;;12.2;8.1;;;;;;;;;;;;;
2022/12/03 01:16:01;;;;;;;12;7.5;;;;;;;;;;;;;
2022/12/03 01:18:27;;;;;;;13.3;8;;;;;;;;;;;;;
2022/12/03 01:20:52;;;;;;;11.7;8.1;;;;;;;;;;;;;
2022/12/03 01:23:19;;;;;;;12.2;8;;;;;;;;;;;;;
2022/12/03 01:25:44;;;;;;;12.5;8.1;;;;;;;;;;;;;
2022/12/03 01:28:10;;;;;;;11.4;7.4;;;;;;;;;;;;;
2022/12/03 01:32:15;;;;;;;12;8;;;;;;;;;;;;;
2022/12/03 01:33:00;;;;;;;11.9;7.4;;;;;;;;;;;;;
2022/12/03 01:35:25;;;;;;;10.3;7.3;;;;;;;;;;;;;
2022/12/03 01:37:50;;;;;;;11.6;7.4;;;;;;;;;;;;;
2022/12/03 01:40:19;;;;;;;12.9;8;;;;;;;;;;;;;
2022/12/03 01:42:44;;;;;;;11.9;7.5;;;;;;;;;;;;;
2022/12/03 01:45:09;;;;;;;11.6;7.6;;;;;;;;;;;;;
2022/12/03 01:47:34;;;;;;;11.8;8;;;;;;;;;;;;;
2022/12/03 01:50:00;;;;;;;11.9;7.8;;;;;;;;;;;;;
2022/12/03 01:52:25;;;;;;;10.5;7;;;;;;;;;;;;;
2022/12/03 01:54:52;;;;;;;12.1;7.7;;;;;;;;;;;;;
2022/12/03 01:57:17;;;;;;;13.9;8.5;;;;;;;;;;;;;
2022/12/03 01:59:42;;;;;;;12.3;7.9;;;;;;;;;;;;;
2022/12/03 02:02:08;;;;;;;13.4;7.6;;;;;;;;;;;;;
2022/12/03 02:04:33;;;;;;;11.3;7.5;;;;;;;;;;;;;
2022/12/03 02:07:02;;;;;;;11.5;7.5;;;;;;;;;;;;;
2022/12/03 02:09:27;;;;;;;13.9;7.1;;;;;;;;;;;;;
2022/12/03 02:11:52;;;;;;;9.4;6.8;;;;;;;;;;;;;
2022/12/03 02:14:17;;;;;;;12.2;7;;;;;;;;;;;;;
2022/12/03 02:16:44;;;;;;;12.6;7.2;;;;;;;;;;;;;
2022/12/03 02:19:09;;;;;;;10;6.5;;;;;;;;;;;;;
2022/12/03 02:21:35;;;;;;;9.9;7;;;;;;;;;;;;;
2022/12/03 02:24:00;;;;;;;10.2;6.8;;;;;;;;;;;;;
2022/12/03 02:26:25;;;;;;;12.3;7.2;;;;;;;;;;;;;
2022/12/03 02:28:50;;;;;;;11.1;7.3;;;;;;;;;;;;;
2022/12/03 02:33:40;;;;;;;11.9;7.1;;;;;;;;;;;;;
2022/12/03 02:36:06;;;;;;;10.8;7.4;;;;;;;;;;;;;
2022/12/03 02:38:31;;;;;;;10.3;7.1;;;;;;;;;;;;;
2022/12/03 02:40:56;;;;;;;12;7.3;;;;;;;;;;;;;
2022/12/03 02:43:22;;;;;;;10.3;6.6;;;;;;;;;;;;;
2022/12/03 02:45:47;;;;;;;10.5;6.9;;;;;;;;;;;;;
2022/12/03 02:48:12;;;;;;;9.2;6.6;;;;;;;;;;;;;
2022/12/03 02:50:39;;;;;;;11.5;7.1;;;;;;;;;;;;;
2022/12/03 02:53:04;;;;;;;9.4;6.2;;;;;;;;;;;;;
2022/12/03 02:55:30;;;;;;;10.2;6.6;;;;;;;;;;;;;
2022/12/03 02:57:55;;;;;;;9.8;6.7;;;;;;;;;;;;;
2022/12/03 03:00:22;;;;;;;10.1;6.9;;;;;;;;;;;;;
2022/12/03 03:02:47;;;;;;;10;6.7;;;;;;;;;;;;;
2022/12/03 03:05:15;;;;;;;9.4;6.8;;;;;;;;;;;;;
2022/12/03 03:07:40;;;;;;;9.5;6.4;;;;;;;;;;;;;
2022/12/03 03:10:07;;;;;;;9.5;6.1;;;;;;;;;;;;;
2022/12/03 03:12:33;;;;;;;11.4;6.8;;;;;;;;;;;;;
2022/12/03 03:14:58;;;;;;;10;6.7;;;;;;;;;;;;;
2022/12/03 03:17:23;;;;;;;9.8;6.8;;;;;;;;;;;;;
2022/12/03 03:19:48;;;;;;;9.8;6.4;;;;;;;;;;;;;
2022/12/03 03:22:13;;;;;;;8.9;6.6;;;;;;;;;;;;;
2022/12/03 03:24:39;;;;;;;10.8;6.9;;;;;;;;;;;;;
2022/12/03 03:27:05;;;;;;;12.1;7.1;;;;;;;;;;;;;
2022/12/03 03:29:32;;;;;;;10.5;6.5;;;;;;;;;;;;;
2022/12/03 03:31:57;;;;;;;9.2;6.3;;;;;;;;;;;;;
2022/12/03 03:34:22;;;;;;;8.8;6.4;;;;;;;;;;;;;
2022/12/03 03:36:48;;;;;;;10.3;6.9;;;;;;;;;;;;;
2022/12/03 03:39:13;;;;;;;11.1;7;;;;;;;;;;;;;
2022/12/03 03:41:38;;;;;;;10.8;6.7;;;;;;;;;;;;;
2022/12/03 03:44:06;;;;;;;11.9;7.6;;;;;;;;;;;;;
2022/12/03 03:46:32;;;;;;;12.1;8.1;;;;;;;;;;;;;
2022/12/03 03:48:56;;;;;;;13.9;9;;;;;;;;;;;;;
2022/12/03 03:51:21;;;;;;;14.6;8.7;;;;;;;;;;;;;
2022/12/03 03:53:47;;;;;;;12.2;7.3;;;;;;;;;;;;;
2022/12/03 03:56:11;;;;;;;8.6;6.3;;;;;;;;;;;;;
2022/12/03 03:58:38;;;;;;;9.1;6.3;;;;;;;;;;;;;
2022/12/03 04:02:39;;;;;;;12.3;6.6;;;;;;;-1.01;98.59375;936.0907;;;;
2022/12/03 04:05:12;;;;;;;9.3;5.8;;;;;;;-1.02;98.76953;936.0527;;;;
2022/12/03 04:13:35;;;;;;;10.6;6.3;;;;;;;-0.73;98.34766;936.0196;;;;
2022/12/03 04:16:01;;;;;;;11.8;7.2;;;;;;;-0.72;97.75781;936.0854;;;;
2022/12/03 04:18:44;;;;;;;12.4;7.9;;;;;;;-0.73;97.25781;936.0672;;;;
2022/12/03 04:22:38;;;;;;;14.6;7.8;;;;;;;-0.9;97.77441;936.0714;;;;
2022/12/03 04:23:20;;;;;;;13.3;8.1;;;;;;;-1.08;98.66504;936.0051;;;;
2022/12/03 04:30:38;;;;;;;10.2;6.9;;;;;;;-0.67;97.13867;935.9459;;;;
2022/12/03 04:35:44;;;;;;;12.9;8.2;;;;;;;-0.77;97.27148;936.0561;;;;
2022/12/03 04:37:55;;;;;;;9.9;6.4;;;;;;;-0.82;97.25684;936.0453;;;;
2022/12/03 04:42:50;;;;;;;9.2;6;;;;;;;-0.87;96.79102;936.0525;;;;
2022/12/03 04:45:23;;;;;;;8;5.8;;;;;;;-0.99;97.51074;936.0366;;;;
2022/12/03 04:47:48;;;;;;;8.5;5.8;;;;;;;-1.04;98.96484;936.0636;;;;
2022/12/03 04:50:20;;;;;;;9.6;6.5;;;;;;;-1.02;99.34473;936.0659;;;;
2022/12/03 04:52:48;;;;;;;7.3;5.2;;;;;;;-1;98.94922;936.1035;;;;
2022/12/03 04:55:13;;;;;;;7.5;5.4;;;;;;;-0.94;98.69922;935.9797;;;;
2022/12/03 04:57:41;;;;;;;8.1;5.8;;;;;;;-0.81;98.31543;936.0543;;;;
2022/12/03 05:00:06;;;;;;;9.3;6.6;;;;;;;-0.7;97.43066;936.0552;;;;
2022/12/03 05:02:37;;;;;;;12.1;9.1;;;;;;;-0.76;97.12695;936.1461;;;;
2022/12/03 05:05:06;;;;;;;10.3;7.7;;;;;;;-0.69;96.98633;936.0829;;;;
2022/12/03 05:08:18;;;;;;;9.4;7.3;;;;;;;-0.61;96.17285;936.1289;;;;
2022/12/03 05:10:47;;;;;;;9.2;6.1;;;;;;;-0.59;95.47559;936.1506;;;;
2022/12/03 05:13:18;;;;;;;9.1;6.6;;;;;;;-0.54;94.97656;936.0984;;;;
2022/12/03 05:15:51;;;;;;;9.4;7.1;;;;;;;-0.63;95.21191;936.1064;;;;
2022/12/03 05:18:19;;;;;;;10;7.1;;;;;;;-0.72;95.71387;936.0545;;;;
2022/12/03 05:20:44;;;;;;;11.6;8.1;;;;;;;-0.75;96.03906;936.1202;;;;
2022/12/03 05:23:11;;;;;;;10;7.1;;;;;;;-0.62;95.5127;936.0825;;;;
2022/12/03 05:25:36;;;;;;;9.8;7.1;;;;;;;-0.68;95.24414;936.064;;;;
2022/12/03 05:28:01;;;;;;;9.6;6.8;;;;;;;-0.86;95.78125;936.0184;;;;
2022/12/03 05:30:26;;;;;;;10.8;7.4;;;;;;;-0.89;95.80859;935.9647;;;;
2022/12/03 05:32:55;;;;;;;10.8;7.2;;;;;;;-0.85;95.5293;936.0754;;;;
2022/12/03 05:35:28;;;;;;;9.5;6;;;;;;;-1.1;96.37012;935.9956;;;;
2022/12/03 05:37:53;;;;;;;8.6;5.4;;;;;;;-1.07;96.96973;936.1021;;;;
2022/12/03 05:40:18;;;;;;;6.9;5.2;;;;;;;-1.23;97.57422;936.1591;;;;
2022/12/03 05:42:55;;;;;;;8.3;6;;;;;;;-1.11;97.59277;936.0192;;;;
2022/12/03 05:45:15;;;;;;;8.1;5.5;;;;;;;-1.2;97.54688;936.0941;;;;
2022/12/03 05:47:47;;;;;;;8;5.6;;;;;;;-1.15;97.58398;936.1169;;;;
2022/12/03 05:50:13;;;;;;;6.8;5.4;;;;;;;-1.04;97.56445;936.1002;;;;
2022/12/03 05:52:42;;;;;;;8.4;5.2;;;;;;;-0.9;96.99414;936.2062;;;;
2022/12/03 05:55:07;;;;;;;7.5;5.3;;;;;;;-0.84;96.1875;936.1859;;;;
2022/12/03 05:57:33;;;;;;;8.2;5.8;;;;;;;-0.83;95.44531;936.2311;;;;
2022/12/03 05:59:58;;;;;;;9;6.2;;;;;;;-0.85;95.58301;936.1199;;;;
2022/12/03 06:02:26;;;;;;;9.2;6.6;;;;;;;-0.92;95.52246;936.228;;;;
2022/12/03 06:04:53;;;;;;;10.1;7.1;;;;;;;-1.11;96.13672;936.147;;;;
2022/12/03 06:07:18;;;;;;;10.6;7.2;;;;;;;-1.17;97.08008;936.1361;;;;
2022/12/03 06:09:45;;;;;;;10.8;6.7;;;;;;;-1.11;97.29199;936.0317;;;;
2022/12/03 06:12:11;;;;;;;9.1;6.4;;;;;;;-1;97.08203;936.0988;;;;
2022/12/03 06:14:38;;;;;;;9.3;6.6;;;;;;;-0.86;96.41699;936.0037;;;;
2022/12/03 06:17:03;;;;;;;8.5;6.1;;;;;;;-0.8;95.78418;936.1297;;;;
2022/12/03 06:19:32;;;;;;;8.6;6;;;;;;;-0.89;95.97363;936.1395;;;;
2022/12/03 06:21:57;;;;;;;9.9;6.7;;;;;;;-0.97;96.1123;936.1555;;;;
2022/12/03 06:24:22;;;;;;;8.5;6.1;;;;;;;-1.07;96.77832;936.1337;;;;
2022/12/03 06:26:50;;;;;;;8.8;5.9;;;;;;;-0.94;96.57422;936.0983;;;;
2022/12/03 06:29:15;;;;;;;8.3;6.1;;;;;;;-0.82;95.51172;936.1141;;;;
2022/12/03 06:31:42;;;;;;;8.7;6.3;;;;;;;-0.77;94.71191;936.1144;;;;
2022/12/03 06:34:07;;;;;;;11.6;6.8;;;;;;;-0.97;95.61035;935.9551;;;;
2022/12/03 06:36:37;;;;;;;21.4;12.5;;;;;;;-1.1;96.5166;936.0037;;;;
2022/12/03 06:39:06;;;;;;;32;18.7;;;;;;;-0.98;96.39941;935.8862;;;;
2022/12/03 06:41:31;;;;;;;32.7;18.3;;;;;;;-1;96.17285;935.9814;;;;
2022/12/03 06:43:59;;;;;;;33.7;19.5;;;;;;;-0.95;96.16113;935.9742;;;;
2022/12/03 06:46:24;;;;;;;27;15.7;;;;;;;-0.96;96.04785;935.9847;;;;
2022/12/03 06:48:53;;;;;;;33.4;19.8;;;;;;;-1.02;96.04395;935.9713;;;;
2022/12/03 06:51:18;;;;;;;18.3;11.1;;;;;;;-1.11;96.2041;935.9426;;;;
2022/12/03 06:53:47;;;;;;;10.7;6.9;;;;;;;-1.38;97.91797;935.8045;;;;
2022/12/03 06:56:20;;;;;;;7.6;5.6;;;;;;;-1.64;99.59961;935.9983;;;;
2022/12/03 07:07:58;;;;;;;9.7;6.2;;;;;;;-1.35;100;935.9794;;;;
2022/12/03 07:17:56;;;;;;;13.5;9.8;;;;;;;-0.99;99.5625;935.937;;;;
2022/12/03 07:20:26;;;;;;;14.1;10.6;;;;;;;-0.94;98.9082;935.9732;;;;
2022/12/03 07:22:51;;;;;;;13.6;10.2;;;;;;;-0.75;98.49707;935.955;;;;
2022/12/03 07:25:19;;;;;;;12.9;9.6;;;;;;;-0.58;97.21582;935.9503;;;;
2022/12/03 07:27:44;;;;;;;15.2;10.7;;;;;;;-0.46;96.2168;935.8477;;;;
2022/12/03 07:30:12;;;;;;;13.4;9;;;;;;;-0.33;95.17871;935.9356;;;;
2022/12/03 07:32:41;;;;;;;14.1;9.4;;;;;;;-0.4;94.49512;935.9294;;;;
2022/12/03 07:35:06;;;;;;;16.6;10.8;;;;;;;-0.47;94.85742;935.9241;;;;
2022/12/03 07:37:33;;;;;;;16.5;12.2;;;;;;;-0.54;95.06348;935.98;;;;
2022/12/03 07:43:43;;;;;;;9.2;6.9;;;;;;;-0.7;95.81836;935.9792;;;;
2022/12/03 07:46:07;;;;;;;10.6;7.6;;;;;;;-0.63;95.85742;935.9125;;;;
2022/12/03 07:48:32;;;;;;;8.9;6.3;;;;;;;-0.64;95.76563;935.9526;;;;
2022/12/03 07:50:57;;;;;;;8.1;6.2;;;;;;;-0.61;95.39648;935.9565;;;;
2022/12/03 07:53:26;;;;;;;13.6;9.2;;;;;;;-0.71;95.73633;935.899;;;;
2022/12/03 07:55:51;;;;;;;11.4;8.2;;;;;;;-0.66;96.34961;935.9289;;;;
2022/12/03 07:58:17;;;;;;;11.5;8.5;;;;;;;-0.46;96.37207;935.9113;;;;
2022/12/03 08:00:42;;;;;;;10.5;7.9;;;;;;;-0.29;96.16699;935.8887;;;;
2022/12/03 08:03:12;;;;;;;14.1;10.3;;;;;;;-0.1;95.67578;935.9633;;;;
2022/12/03 08:05:38;;;;;;;15.5;11.2;;;;;;;0.11;95.05566;935.9856;;;;
2022/12/03 08:08:07;;;;;;;13.5;9.7;;;;;;;0.46;95.47949;935.9208;;;;
2022/12/03 08:18:26;;;;;;;11.7;9.2;;;;;;;0.58;90.67578;935.9579;;;;
2022/12/03 08:20:51;;;;;;;11.4;8.7;;;;;;;0.38;91.64941;936.0009;;;;
2022/12/03 08:23:19;;;;;;;13.7;10.6;;;;;;;0.35;92.16602;936.0503;;;;
2022/12/03 08:25:44;;;;;;;12.7;10.2;;;;;;;0.34;92.07617;935.8644;;;;
2022/12/03 08:29:44;;;;;;;24.2;21.2;;;;;;;0.48;92.08203;935.9073;;;;
2022/12/03 08:32:04;;;;;;;14.5;11.5;;;;;;;0.79;91.36914;935.8911;;;;
2022/12/03 08:34:30;;;;;;;11.2;8.5;;;;;;;0.77;90.68457;935.8276;;;;
2022/12/03 08:36:57;;;;;;;13.3;9.7;;;;;;;0.5;91.76465;935.8518;;;;
2022/12/03 08:39:24;;;;;;;14.5;10.6;;;;;;;0.44;92.68945;935.8613;;;;
2022/12/03 08:44:14;;;;;;;11.7;8.5;;;;;;;0.37;93.69922;935.8228;;;;
2022/12/03 08:46:43;;;;;;;12.5;9.2;;;;;;;0.37;94.13379;935.8964;;;;
2022/12/03 08:49:11;;;;;;;13.4;9.8;;;;;;;0.46;94.43066;935.891;;;;
2022/12/03 08:51:36;;;;;;;13.7;9.9;;;;;;;0.75;93.92871;935.8769;;;;
2022/12/03 08:54:01;;;;;;;11.7;9.3;;;;;;;1.06;93.43848;935.848;;;;
2022/12/03 08:56:26;;;;;;;12.3;9.7;;;;;;;1.29;92.49316;935.8816;;;;
2022/12/03 08:58:51;;;;;;;13.7;10.7;;;;;;;1.37;92.06445;935.7687;;;;
2022/12/03 09:01:18;;;;;;;13.3;11.1;;;;;;;1.4;91.6123;935.8365;;;;
2022/12/03 09:03:44;;;;;;;13.1;9.7;;;;;;;1.4;91.37891;935.8414;;;;
2022/12/03 09:06:10;;;;;;;12.6;9.9;;;;;;;1.43;91.5625;935.8914;;;;
2022/12/03 09:08:35;;;;;;;17.1;11;;;;;;;1.46;91.35938;935.8764;;;;
2022/12/03 09:11:01;;;;;;;16.2;12.5;;;;;;;1.52;91.50488;935.79;;;;
2022/12/03 09:13:26;;;;;;;15.6;11.9;;;;;;;1.43;92.15625;935.8382;;;;
2022/12/03 09:18:29;;;;;;;8.7;6.8;;;;;;;1.46;92.70996;935.7341;;;;
2022/12/03 09:20:55;;;;;;;7.7;6.3;;;;;;;1.41;92.50977;935.6892;;;;
2022/12/03 09:23:19;;;;;;;8.9;6.9;;;;;;;1.34;93.29883;935.7645;;;;
2022/12/03 09:25:50;;;;;;;8.4;6;;;;;;;1.4;93.34668;935.7406;;;;
2022/12/03 09:28:15;;;;;;;7.9;5.7;;;;;;;1.42;93.44922;935.6785;;;;
2022/12/03 09:30:43;;;;;;;7.4;6.1;;;;;;;1.55;93.44531;935.6937;;;;
2022/12/03 09:34:07;;;;;;;8.1;6.1;;;;;;;1.77;92.87988;935.6383;;;;
2022/12/03 09:36:40;;;;;;;6.7;5.1;;;;;;;1.8;92.14551;935.6234;;;;
2022/12/03 09:39:09;;;;;;;6.7;5.3;;;;;;;1.89;92.17871;935.5778;;;;
2022/12/03 09:45:05;;;;;;;5.8;4.9;;;;;;;2.03;92.86816;935.4835;;;;
2022/12/03 09:47:34;;;;;;;12.5;8.8;;;;;;;2.32;92.10449;935.502;;;;
2022/12/03 09:49:59;;;;;;;13.4;9.7;;;;;;;2.12;89.94336;935.4426;;;;
2022/12/03 09:52:30;;;;;;;12.9;9.3;;;;;;;2.1;90.1748;935.4465;;;;
2022/12/03 09:54:55;;;;;;;11.6;8.8;;;;;;;2.2;89.17676;935.5099;;;;
2022/12/03 09:57:22;;;;;;;11.7;8.4;;;;;;;2.37;88.2832;935.4856;;;;
2022/12/03 09:59:48;;;;;;;10.4;7.3;;;;;;;2.3;87.28418;935.3577;;;;
2022/12/03 10:02:12;;;;;;;9.5;7;;;;;;;2.17;86.40332;935.3917;;;;
2022/12/03 10:04:37;;;;;;;8.2;7;;;;;;;2.11;86.9082;935.3796;;;;
2022/12/03 10:07:03;;;;;;;9.3;7;;;;;;;2.1;86.90625;935.3918;;;;
2022/12/03 10:09:28;;;;;;;8.4;6.6;;;;;;;2.07;86.96777;935.3389;;;;
2022/12/03 10:11:53;;;;;;;8.9;6.8;;;;;;;2.06;85.94531;935.3416;;;;
2022/12/03 10:14:19;;;;;;;8.7;7.1;;;;;;;2.06;85.93555;935.2374;;;;
2022/12/03 10:16:44;;;;;;;9.7;7.4;;;;;;;2.03;86.01758;935.2791;;;;
2022/12/03 10:19:11;;;;;;;9.4;7.3;;;;;;;1.51;87.24414;935.2756;;;;
2022/12/03 10:21:36;;;;;;;9.7;7.6;;;;;;;1.63;87.55859;935.1989;;;;
2022/12/03 10:24:05;;;;;;;11.8;8.1;;;;;;;1.64;87.48242;935.1861;;;;
2022/12/03 10:26:30;;;;;;;12;8.7;;;;;;;1.82;87.3291;935.134;;;;
2022/12/03 10:28:56;;;;;;;11.2;8;;;;;;;2.03;86.79004;935.1082;;;;
2022/12/03 10:31:21;;;;;;;10.1;7.7;;;;;;;2.2;85.99902;935.0439;;;;
2022/12/03 10:33:46;;;;;;;10.6;7.8;;;;;;;2.31;85.3584;935.0461;;;;
2022/12/03 10:36:11;;;;;;;10.4;7.9;;;;;;;2.21;85.29297;934.952;;;;
2022/12/03 10:38:36;;;;;;;11.1;7.7;;;;;;;2.07;85.5127;934.9174;;;;
2022/12/03 10:41:06;;;;;;;9.2;7.1;;;;;;;2.06;86.14844;935.059;;;;
2022/12/03 10:43:31;;;;;;;12.8;8.5;;;;;;;2.03;86.12988;934.9503;;;;
2022/12/03 10:45:57;;;;;;;14.9;10;;;;;;;1.81;87.20605;934.9705;;;;
2022/12/03 10:48:24;;;;;;;14.3;9.9;;;;;;;1.95;87.25684;934.9763;;;;
2022/12/03 10:50:47;;;;;;;12.8;9;;;;;;;2.01;87.5127;934.9031;;;;
2022/12/03 10:53:15;;;;;;;13.1;9.1;;;;;;;1.96;87.06641;934.894;;;;
2022/12/03 10:55:40;;;;;;;15.4;9.9;;;;;;;2.01;87.2998;934.9455;;;;
2022/12/03 10:58:07;;;;;;;11.9;8.9;;;;;;;2.13;87.16895;934.8839;;;;
2022/12/03 11:00:33;;;;;;;12.1;8.5;;;;;;;1.95;87.34668;934.8931;;;;
2022/12/03 11:02:58;;;;;;;14;9;;;;;;;1.96;87.83887;934.9309;;;;
2022/12/03 11:05:27;;;;;;;15.4;10.3;;;;;;;2.07;88.06445;934.8317;;;;
2022/12/03 11:07:51;;;;;;;14.4;10.1;;;;;;;1.93;88.09082;934.8153;;;;
2022/12/03 11:10:18;;;;;;;15;10;;;;;;;2.09;88.69531;934.7428;;;;
2022/12/03 11:12:43;;;;;;;15.1;10.3;;;;;;;2.29;88.14355;934.7917;;;;
2022/12/03 11:15:12;;;;;;;15;10.1;;;;;;;2.36;87.78809;934.8137;;;;
2022/12/03 11:17:43;;;;;;;15.5;11;;;;;;;2.36;87.63184;934.7838;;;;
2022/12/03 11:20:09;;;;;;;18.3;11.3;;;;;;;2.49;87.33301;934.7839;;;;
2022/12/03 11:23:02;;;;;;;19.5;12.9;;;;;;;2.64;86.99219;934.6389;;;;
2022/12/03 11:25:27;;;;;;;15.1;9.3;;;;;;;2.65;86.29004;934.747;;;;
2022/12/03 11:27:52;;;;;;;13.9;9.4;;;;;;;2.7;86.23242;934.6809;;;;
2022/12/03 11:30:17;;;;;;;15.2;10.3;;;;;;;2.58;86.31055;934.7853;;;;
2022/12/03 11:32:42;;;;;;;15.2;10.3;;;;;;;2.81;86.36621;934.7531;;;;
2022/12/03 11:35:11;;;;;;;14.3;9.8;;;;;;;2.96;85.99512;934.6786;;;;
2022/12/03 11:37:36;;;;;;;12.2;9.4;;;;;;;2.8;85.85059;934.7617;;;;
2022/12/03 11:40:07;;;;;;;13.4;9.6;;;;;;;2.88;85.82031;934.805;;;;
2022/12/03 11:42:35;;;;;;;13.7;9.5;;;;;;;2.41;86.85645;934.7991;;;;
2022/12/03 11:45:43;;;;;;;16;10.1;;;;;;;2.42;87.13867;934.8661;;;;
2022/12/03 11:48:12;;;;;;;15.3;10.6;;;;;;;2.48;87.31055;934.7317;;;;
2022/12/03 11:50:37;;;;;;;13.9;9.9;;;;;;;2.38;88.13965;934.7247;;;;
2022/12/03 11:53:02;;;;;;;15.7;10.2;;;;;;;2.46;87.94336;934.7512;;;;
2022/12/03 11:55:27;;;;;;;21;13.7;;;;;;;2.55;87.61328;934.7739;;;;
2022/12/03 11:57:55;;;;;;;17.7;12.3;;;;;;;2.32;88.6543;934.7636;;;;
2022/12/03 12:00:22;;;;;;;15.9;10.4;;;;;;;2.17;89.32813;934.6545;;;;
2022/12/03 12:02:47;;;;;;;17.5;11.6;;;;;;;2.15;89.95117;934.6067;;;;
2022/12/03 12:05:14;;;;;;;15.5;10.5;;;;;;;1.91;91.44336;934.6961;;;;
2022/12/03 12:07:44;;;;;;;14.2;10.5;;;;;;;2.14;91.18066;934.6646;;;;
2022/12/03 12:10:07;;;;;;;16;10.9;;;;;;;2.41;90.63379;934.6658;;;;
2022/12/03 12:12:45;;;;;;;15;10;;;;;;;2.36;89.64648;934.5457;;;;
2022/12/03 12:15:09;;;;;;;15.7;10.8;;;;;;;2.43;90.04395;934.5947;;;;
2022/12/03 12:17:41;;;;;;;16.8;10.9;;;;;;;2.66;89.49805;934.5477;;;;
2022/12/03 12:20:06;;;;;;;16.2;10.9;;;;;;;2.81;88.82422;934.479;;;;
2022/12/03 12:22:31;;;;;;;15.4;10.7;;;;;;;2.86;88.09277;934.4083;;;;
2022/12/03 12:24:59;;;;;;;14.3;9.2;;;;;;;2.78;87.80762;934.4767;;;;
2022/12/03 12:27:24;;;;;;;13.2;9.3;;;;;;;2.72;88.07617;934.4782;;;;
2022/12/03 12:29:50;;;;;;;12.9;8.7;;;;;;;2.79;88;934.3773;;;;
2022/12/03 12:32:15;;;;;;;11.5;8.5;;;;;;;2.86;87.63281;934.5457;;;;
2022/12/03 12:35:48;;;;;;;11.4;8.6;;;;;;;2.92;87.56738;934.495;;;;
2022/12/03 12:38:19;;;;;;;13.4;10;;;;;;;2.91;87.59961;934.4467;;;;
2022/12/03 12:40:45;;;;;;;13.5;8.9;;;;;;;2.97;87.29688;934.4265;;;;
2022/12/03 12:43:09;;;;;;;14.4;10;;;;;;;2.93;87.39941;934.3677;;;;
2022/12/03 12:45:36;;;;;;;16.3;12.1;;;;;;;2.93;87.26465;934.3865;;;;
2022/12/03 12:48:02;;;;;;;11.9;8.2;;;;;;;2.82;87.4668;934.3887;;;;
2022/12/03 12:50:26;;;;;;;10.7;7.9;;;;;;;2.82;87.89355;934.3619;;;;
2022/12/03 12:52:55;;;;;;;10.4;8;;;;;;;2.82;87.89355;934.2889;;;;
2022/12/03 12:55:23;;;;;;;10.1;7.2;;;;;;;2.74;87.66504;934.2949;;;;
2022/12/03 12:57:49;;;;;;;10.7;8.1;;;;;;;2.65;88.12891;934.2952;;;;
2022/12/03 13:00:18;;;;;;;11.2;8;;;;;;;2.57;88.70703;934.2569;;;;
2022/12/03 13:02:43;;;;;;;12.1;8.3;;;;;;;2.69;88.67383;934.3395;;;;
2022/12/03 13:05:08;;;;;;;11.2;8.4;;;;;;;2.7;88.65527;934.27;;;;
2022/12/03 13:07:33;;;;;;;11.1;7.7;;;;;;;2.62;89.04004;934.2885;;;;
2022/12/03 13:10:02;;;;;;;10.4;7.8;;;;;;;2.5;89.17383;934.2993;;;;
2022/12/03 13:12:28;;;;;;;11.5;8.1;;;;;;;2.56;89.24121;934.3412;;;;
2022/12/03 13:14:55;;;;;;;12.3;8.2;;;;;;;2.43;89.60742;934.2586;;;;
2022/12/03 13:17:23;;;;;;;12.8;9;;;;;;;2.48;89.74219;934.2587;;;;
2022/12/03 13:19:45;;;;;;;12.4;8.6;;;;;;;2.59;89.66211;934.1914;;;;
2022/12/03 13:22:13;;;;;;;11.4;8.6;;;;;;;2.55;89.57813;934.1447;;;;
2022/12/03 13:24:38;;;;;;;13.3;8.5;;;;;;;2.57;89.92871;934.238;;;;
2022/12/03 13:27:03;;;;;;;12.9;8.6;;;;;;;2.62;89.63379;934.1965;;;;
2022/12/03 13:29:28;;;;;;;12.8;8.7;;;;;;;2.67;89.45703;934.1794;;;;
2022/12/03 13:31:53;;;;;;;12;9;;;;;;;2.65;89.55176;934.108;;;;
2022/12/03 13:34:19;;;;;;;12;8.4;;;;;;;2.74;89.48145;934.1361;;;;
2022/12/03 13:36:44;;;;;;;13.3;9.1;;;;;;;2.68;89.29102;934.1711;;;;
2022/12/03 13:39:09;;;;;;;13.4;9.2;;;;;;;2.68;89.28906;934.1002;;;;
2022/12/03 13:44:03;;;;;;;17.7;12.6;;;;;;;2.66;89.98047;934.0673;;;;
2022/12/03 13:46:28;;;;;;;13;9.3;;;;;;;2.76;89.75391;934.0076;;;;
2022/12/03 13:48:53;;;;;;;12.9;9.3;;;;;;;2.79;89.42383;934.0031;;;;
2022/12/03 13:51:18;;;;;;;12;8.5;;;;;;;2.55;89.68848;933.9992;;;;
2022/12/03 13:53:45;;;;;;;13.4;9.8;;;;;;;2.61;89.93652;933.9958;;;;
2022/12/03 13:56:10;;;;;;;13.1;8.8;;;;;;;2.75;90.05566;933.9406;;;;
2022/12/03 13:58:41;;;;;;;13.5;9.2;;;;;;;2.79;89.35645;934.0179;;;;
2022/12/03 14:01:08;;;;;;;13.3;9.5;;;;;;;2.79;89.05371;933.889;;;;
2022/12/03 14:03:33;;;;;;;13.4;9.8;;;;;;;2.83;89.55469;933.9377;;;;
2022/12/03 14:06:00;;;;;;;13.4;9.8;;;;;;;2.93;88.74707;933.9827;;;;
2022/12/03 14:08:25;;;;;;;13.8;10;;;;;;;2.75;88.85547;934.0294;;;;
2022/12/03 14:10:51;;;;;;;11.8;8.8;;;;;;;2.72;89.69043;934.0419;;;;
2022/12/03 14:13:16;;;;;;;13.1;9.2;;;;;;;2.64;89.89551;933.9221;;;;
2022/12/03 14:15:48;;;;;;;13.7;9.4;;;;;;;2.61;90.17188;933.9276;;;;
2022/12/03 14:18:17;;;;;;;13.2;9.8;;;;;;;2.73;90.31152;933.8969;;;;
2022/12/03 14:20:47;;;;;;;13.4;9.5;;;;;;;2.81;89.9541;933.923;;;;
2022/12/03 14:23:12;;;;;;;13;9.3;;;;;;;2.79;89.68164;933.8711;;;;
2022/12/03 14:25:39;;;;;;;11.9;8.9;;;;;;;2.43;90.62695;933.8293;;;;
2022/12/03 14:28:07;;;;;;;13.5;9.8;;;;;;;2.44;90.97754;933.8505;;;;
2022/12/03 14:30:29;;;;;;;13.9;9.2;;;;;;;2.39;91.37891;933.7737;;;;
2022/12/03 14:32:57;;;;;;;14.2;9.4;;;;;;;2.49;91.49023;933.7834;;;;
2022/12/03 14:35:23;;;;;;;13.3;9.2;;;;;;;2.5;91.04395;933.8152;;;;
2022/12/03 14:37:49;;;;;;;12.4;9.7;;;;;;;2.48;90.99512;933.7894;;;;
2022/12/03 14:40:14;;;;;;;14.3;9.7;;;;;;;2.54;90.88379;933.8488;;;;
2022/12/03 14:42:42;;;;;;;15.1;10.1;;;;;;;2.62;90.67871;933.8273;;;;
2022/12/03 14:45:07;;;;;;;14.9;10.1;;;;;;;2.73;90.48828;933.7206;;;;
2022/12/03 14:47:35;;;;;;;14.6;9.7;;;;;;;2.82;90.14941;933.7693;;;;
2022/12/03 14:50:00;;;;;;;13.7;9.7;;;;;;;2.91;90.02246;933.783;;;;
2022/12/03 14:52:25;;;;;;;13.6;10;;;;;;;2.82;89.64258;933.8376;;;;
2022/12/03 14:54:52;;;;;;;14.5;9.8;;;;;;;2.88;89.68945;933.8851;;;;
2022/12/03 14:57:17;;;;;;;14.2;10;;;;;;;2.86;89.69922;933.8767;;;;
2022/12/03 14:59:45;;;;;;;14.6;10.2;;;;;;;2.89;89.51367;933.8578;;;;
2022/12/03 15:02:09;;;;;;;18.3;11.8;;;;;;;2.9;89.33594;933.8677;;;;
2022/12/03 15:04:35;;;;;;;14.3;10.8;;;;;;;2.76;89.77832;933.79;;;;
2022/12/03 15:07:01;;;;;;;19.3;12.9;;;;;;;2.72;90.0498;933.8123;;;;
2022/12/03 15:09:27;;;;;;;17.7;12.3;;;;;;;2.66;90.57422;933.885;;;;
2022/12/03 15:11:55;;;;;;;18;13;;;;;;;2.71;90.76465;933.8522;;;;
2022/12/03 15:14:20;;;;;;;20.6;13.3;;;;;;;2.76;90.31543;933.8395;;;;
2022/12/03 15:16:45;;;;;;;20.2;13.7;;;;;;;2.69;90.49023;933.7924;;;;
2022/12/03 15:19:11;;;;;;;19.6;12.5;;;;;;;2.75;90.2793;933.8792;;;;
2022/12/03 15:21:36;;;;;;;20.2;13.5;;;;;;;2.76;90.22754;933.9489;;;;
2022/12/03 15:24:03;;;;;;;19.3;13.5;;;;;;;2.72;90.36133;933.938;;;;
2022/12/03 15:26:28;;;;;;;19.3;13.7;;;;;;;2.67;90.96875;933.9082;;;;
2022/12/03 15:28:53;;;;;;;19;13;;;;;;;2.35;91.86426;933.8621;;;;
2022/12/03 15:31:19;;;;;;;21.2;14.1;;;;;;;2.39;92.43164;933.7784;;;;
2022/12/03 15:33:47;;;;;;;21;14;;;;;;;2.26;93.05371;933.7679;;;;
2022/12/03 15:36:12;;;;;;;21.8;14.6;;;;;;;2.28;93.50586;933.7599;;;;
2022/12/03 15:38:38;;;;;;;23.6;15.4;;;;;;;2.24;93.69922;933.7211;;;;
2022/12/03 15:41:19;;;;;;;23.1;16.1;;;;;;;2.23;93.83203;933.7522;;;;
2022/12/03 15:43:28;;;;;;;24.9;17.5;;;;;;;2.36;93.56836;933.7572;;;;
2022/12/03 15:49:53;;;;;;;26.5;18.3;;;;;;;2.34;93.57617;933.7949;;;;
2022/12/03 15:52:18;;;;;;;28.7;18.7;;;;;;;2.35;93.56641;933.8997;;;;
2022/12/03 15:54:44;;;;;;;25;16.7;;;;;;;2.24;93.90137;933.9197;;;;
2022/12/03 15:57:11;;;;;;;22.3;16.3;;;;;;;2.23;94.21094;933.8408;;;;
2022/12/03 15:59:36;;;;;;;24.4;16.3;;;;;;;2.19;94.24707;933.84;;;;
2022/12/03 16:02:32;;;;;;;24.6;15.7;;;;;;;2.16;94.62207;933.9261;;;;
2022/12/03 16:04:52;;;;;;;21.7;15.3;;;;;;;2.18;95.21973;933.8859;;;;
2022/12/03 16:07:17;;;;;;;22.1;15.3;;;;;;;2.24;94.97461;933.8521;;;;
2022/12/03 16:09:44;;;;;;;22.5;14.9;;;;;;;2.33;94.48145;933.9068;;;;
2022/12/03 16:12:09;;;;;;;21;14.2;;;;;;;2.37;94.2207;933.8477;;;;
2022/12/03 16:14:36;;;;;;;23.6;15.8;;;;;;;2.26;93.94824;933.8269;;;;
2022/12/03 16:17:02;;;;;;;23.7;15.5;;;;;;;2.17;94.47852;933.7946;;;;
2022/12/03 16:19:31;;;;;;;30;18.6;;;;;;;2.05;95.13477;933.77;;;;
2022/12/03 16:33:06;;;;;;;26.4;17.7;;;;;;;1.92;96.38086;933.7325;;;;
2022/12/03 16:35:22;;;;;;;37.8;25.5;;;;;;;1.97;96.50488;933.7137;;;;
2022/12/03 16:43:47;;;;;;;32.2;20.2;;;;;;;1.89;97.1377;933.7119;;;;
2022/12/03 16:46:24;;;;;;;28.7;20;;;;;;;1.95;97.18359;933.6479;;;;
2022/12/03 16:48:35;;;;;;;26;18.7;;;;;;;1.98;97.01074;933.7072;;;;
2022/12/03 16:51:03;;;;;;;25.6;16.4;;;;;;;1.95;96.77832;933.7397;;;;
2022/12/03 16:53:28;;;;;;;28.7;17.5;;;;;;;2.09;96.18457;933.7039;;;;